sensor_id;sensor_type;location;lat;lon;timestamp;pressure;altitude;pressure_sealevel;temperature;humidity
16410;BME280;8314;52.426;13.284;2022-07-18T00:01:48;101847.13;;;16.89;66.13
16410;BME280;8314;52.426;13.284;2022-07-18T00:04:20;101848.16;;;16.86;65.98
16410;BME280;8314;52.426;13.284;2022-07-18T00:06:48;101847.97;;;16.90;65.85
16410;BME280;8314;52.426;13.284;2022-07-18T00:09:23;101875.69;;;17.06;65.89
16410;BME280;8314;52.426;13.284;2022-07-18T00:11:52;101829.25;;;16.81;66.50
16410;BME280;8314;52.426;13.284;2022-07-18T00:14:24;101833.44;;;16.84;66.51
16410;BME280;8314;52.426;13.284;2022-07-18T00:16:51;101839.00;;;16.92;66.29
16410;BME280;8314;52.426;13.284;2022-07-18T00:19:19;101858.03;;;17.08;66.76
16410;BME280;8314;52.426;13.284;2022-07-18T00:21:46;101850.84;;;17.10;66.33
16410;BME280;8314;52.426;13.284;2022-07-18T00:24:14;101846.44;;;17.11;66.68
16410;BME280;8314;52.426;13.284;2022-07-18T00:26:43;101848.22;;;17.10;67.03
16410;BME280;8314;52.426;13.284;2022-07-18T00:29:12;101860.41;;;17.11;66.93
16410;BME280;8314;52.426;13.284;2022-07-18T00:31:40;101861.16;;;17.13;66.69
16410;BME280;8314;52.426;13.284;2022-07-18T00:34:07;101873.56;;;17.11;66.77
16410;BME280;8314;52.426;13.284;2022-07-18T00:36:39;101863.16;;;17.10;66.77
16410;BME280;8314;52.426;13.284;2022-07-18T00:39:07;101859.19;;;17.04;66.88
16410;BME280;8314;52.426;13.284;2022-07-18T00:41:35;101858.22;;;17.05;66.47
16410;BME280;8314;52.426;13.284;2022-07-18T00:44:04;101858.44;;;17.02;66.89
16410;BME280;8314;52.426;13.284;2022-07-18T00:46:33;101840.28;;;16.86;66.82
16410;BME280;8314;52.426;13.284;2022-07-18T00:49:01;101881.25;;;17.14;66.90
16410;BME280;8314;52.426;13.284;2022-07-18T00:51:28;101887.34;;;17.15;66.86
16410;BME280;8314;52.426;13.284;2022-07-18T00:53:58;101875.25;;;17.12;67.03
16410;BME280;8314;52.426;13.284;2022-07-18T00:56:32;101830.63;;;16.74;67.15
16410;BME280;8314;52.426;13.284;2022-07-18T00:59:07;101875.16;;;17.01;67.04
16410;BME280;8314;52.426;13.284;2022-07-18T01:01:35;101876.44;;;16.96;67.94
16410;BME280;8314;52.426;13.284;2022-07-18T01:04:19;101871.63;;;16.90;67.91
16410;BME280;8314;52.426;13.284;2022-07-18T01:06:51;101872.78;;;16.85;68.39
16410;BME280;8314;52.426;13.284;2022-07-18T01:09:18;101861.13;;;16.77;68.01
16410;BME280;8314;52.426;13.284;2022-07-18T01:11:47;101854.16;;;16.76;68.09
16410;BME280;8314;52.426;13.284;2022-07-18T01:14:18;101862.91;;;16.76;68.14
16410;BME280;8314;52.426;13.284;2022-07-18T01:16:48;101851.25;;;16.68;68.35
16410;BME280;8314;52.426;13.284;2022-07-18T01:19:16;101815.81;;;16.35;68.73
16410;BME280;8314;52.426;13.284;2022-07-18T01:21:49;101878.16;;;16.71;68.88
16410;BME280;8314;52.426;13.284;2022-07-18T01:24:19;101872.91;;;16.71;69.37
16410;BME280;8314;52.426;13.284;2022-07-18T01:26:50;101870.59;;;16.67;69.14
16410;BME280;8314;52.426;13.284;2022-07-18T01:29:17;101870.81;;;16.64;69.42
16410;BME280;8314;52.426;13.284;2022-07-18T01:31:45;101863.97;;;16.61;69.70
16410;BME280;8314;52.426;13.284;2022-07-18T01:34:12;101863.97;;;16.61;70.18
16410;BME280;8314;52.426;13.284;2022-07-18T01:36:40;101869.28;;;16.60;70.43
16410;BME280;8314;52.426;13.284;2022-07-18T01:39:13;101812.22;;;16.24;70.74
16410;BME280;8314;52.426;13.284;2022-07-18T01:42:30;101871.41;;;16.55;71.34
16410;BME280;8314;52.426;13.284;2022-07-18T01:45:02;101810.03;;;16.18;70.89
16410;BME280;8314;52.426;13.284;2022-07-18T01:47:30;101861.41;;;16.47;71.64
16410;BME280;8314;52.426;13.284;2022-07-18T01:49:58;101869.41;;;16.45;71.65
16410;BME280;8314;52.426;13.284;2022-07-18T01:52:25;101868.66;;;16.43;72.21
16410;BME280;8314;52.426;13.284;2022-07-18T01:54:56;101841.84;;;16.26;72.35
16410;BME280;8314;52.426;13.284;2022-07-18T01:57:23;101855.50;;;16.31;72.28
16410;BME280;8314;52.426;13.284;2022-07-18T01:59:51;101876.34;;;16.34;72.47
16410;BME280;8314;52.426;13.284;2022-07-18T02:02:18;101878.31;;;16.30;72.80
16410;BME280;8314;52.426;13.284;2022-07-18T02:04:46;101881.78;;;16.31;73.07
16410;BME280;8314;52.426;13.284;2022-07-18T02:07:31;101831.84;;;16.05;72.69
16410;BME280;8314;52.426;13.284;2022-07-18T02:10:04;101861.63;;;16.19;72.97
16410;BME280;8314;52.426;13.284;2022-07-18T02:12:32;101866.53;;;16.23;73.25
16410;BME280;8314;52.426;13.284;2022-07-18T02:15:00;101861.38;;;16.22;73.17
16410;BME280;8314;52.426;13.284;2022-07-18T02:17:27;101856.56;;;16.16;73.34
16410;BME280;8314;52.426;13.284;2022-07-18T02:19:55;101852.13;;;16.16;73.18
16410;BME280;8314;52.426;13.284;2022-07-18T02:22:23;101864.44;;;16.16;73.73
16410;BME280;8314;52.426;13.284;2022-07-18T02:24:51;101852.34;;;16.13;74.02
16410;BME280;8314;52.426;13.284;2022-07-18T02:27:20;101853.38;;;16.10;73.80
16410;BME280;8314;52.426;13.284;2022-07-18T02:29:48;101842.66;;;16.01;74.17
16410;BME280;8314;52.426;13.284;2022-07-18T02:32:16;101850.41;;;16.02;74.49
16410;BME280;8314;52.426;13.284;2022-07-18T02:34:44;101855.91;;;15.99;74.38
16410;BME280;8314;52.426;13.284;2022-07-18T02:37:11;101852.09;;;15.91;74.42
16410;BME280;8314;52.426;13.284;2022-07-18T02:39:41;101808.00;;;15.56;74.86
16410;BME280;8314;52.426;13.284;2022-07-18T02:42:33;101819.03;;;15.61;75.31
16410;BME280;8314;52.426;13.284;2022-07-18T02:45:01;101845.53;;;15.71;75.96
16410;BME280;8314;52.426;13.284;2022-07-18T02:47:30;101849.84;;;15.72;76.13
16410;BME280;8314;52.426;13.284;2022-07-18T02:49:57;101858.94;;;15.66;76.11
16410;BME280;8314;52.426;13.284;2022-07-18T02:52:29;101858.59;;;15.58;76.69
16410;BME280;8314;52.426;13.284;2022-07-18T02:54:57;101867.69;;;15.53;77.04
16410;BME280;8314;52.426;13.284;2022-07-18T02:57:27;101860.66;;;15.53;76.99
16410;BME280;8314;52.426;13.284;2022-07-18T02:59:56;101823.16;;;15.24;77.31
16410;BME280;8314;52.426;13.284;2022-07-18T03:02:24;101859.75;;;15.54;77.62
16410;BME280;8314;52.426;13.284;2022-07-18T03:04:52;101857.28;;;15.51;77.46
16410;BME280;8314;52.426;13.284;2022-07-18T03:07:28;101850.09;;;15.40;77.37
16410;BME280;8314;52.426;13.284;2022-07-18T03:09:58;101856.00;;;15.44;77.39
16410;BME280;8314;52.426;13.284;2022-07-18T03:12:25;101825.34;;;15.18;77.82
16410;BME280;8314;52.426;13.284;2022-07-18T03:14:55;101809.25;;;15.10;78.20
16410;BME280;8314;52.426;13.284;2022-07-18T03:19:57;101854.44;;;15.27;78.24
16410;BME280;8314;52.426;13.284;2022-07-18T03:22:24;101794.69;;;14.91;78.40
16410;BME280;8314;52.426;13.284;2022-07-18T03:24:52;101850.31;;;15.23;78.45
16410;BME280;8314;52.426;13.284;2022-07-18T03:27:21;101814.13;;;15.01;78.37
16410;BME280;8314;52.426;13.284;2022-07-18T03:29:49;101854.38;;;15.15;78.71
16410;BME280;8314;52.426;13.284;2022-07-18T03:32:18;101855.50;;;15.11;79.18
16410;BME280;8314;52.426;13.284;2022-07-18T03:34:46;101836.97;;;14.99;79.21
16410;BME280;8314;52.426;13.284;2022-07-18T03:37:13;101814.81;;;14.91;78.98
16410;BME280;8314;52.426;13.284;2022-07-18T03:39:41;101821.44;;;14.96;79.43
16410;BME280;8314;52.426;13.284;2022-07-18T03:42:09;101795.44;;;14.79;79.63
16410;BME280;8314;52.426;13.284;2022-07-18T03:44:36;101798.50;;;14.86;79.20
16410;BME280;8314;52.426;13.284;2022-07-18T03:47:04;101833.88;;;15.07;79.62
16410;BME280;8314;52.426;13.284;2022-07-18T03:49:33;101774.69;;;14.62;79.27
16410;BME280;8314;52.426;13.284;2022-07-18T03:52:01;101807.69;;;14.79;79.39
16410;BME280;8314;52.426;13.284;2022-07-18T03:54:29;101856.53;;;15.08;79.56
16410;BME280;8314;52.426;13.284;2022-07-18T03:56:56;101802.75;;;14.74;79.51
16410;BME280;8314;52.426;13.284;2022-07-18T03:59:24;101846.81;;;15.10;79.21
16410;BME280;8314;52.426;13.284;2022-07-18T04:01:52;101810.53;;;14.76;79.67
16410;BME280;8314;52.426;13.284;2022-07-18T04:04:19;101815.28;;;14.83;79.59
16410;BME280;8314;52.426;13.284;2022-07-18T04:06:49;101797.16;;;14.66;79.27
16410;BME280;8314;52.426;13.284;2022-07-18T04:09:17;101867.03;;;15.08;79.31
16410;BME280;8314;52.426;13.284;2022-07-18T04:11:45;101855.50;;;15.11;79.90
16410;BME280;8314;52.426;13.284;2022-07-18T04:14:13;101856.06;;;15.16;79.72
16410;BME280;8314;52.426;13.284;2022-07-18T04:16:40;101827.97;;;15.03;79.83
16410;BME280;8314;52.426;13.284;2022-07-18T04:19:08;101817.69;;;15.00;79.71
16410;BME280;8314;52.426;13.284;2022-07-18T04:21:36;101857.16;;;15.26;79.44
16410;BME280;8314;52.426;13.284;2022-07-18T04:24:05;101802.16;;;14.97;79.16
16410;BME280;8314;52.426;13.284;2022-07-18T04:26:33;101849.28;;;15.26;79.26
16410;BME280;8314;52.426;13.284;2022-07-18T04:29:01;101823.38;;;15.07;79.11
16410;BME280;8314;52.426;13.284;2022-07-18T04:31:30;101856.75;;;15.32;79.51
16410;BME280;8314;52.426;13.284;2022-07-18T04:33:57;101809.25;;;15.10;79.21
16410;BME280;8314;52.426;13.284;2022-07-18T04:36:25;101834.84;;;15.33;79.21
16410;BME280;8314;52.426;13.284;2022-07-18T04:38:54;101760.78;;;14.88;79.20
16410;BME280;8314;52.426;13.284;2022-07-18T04:41:24;101823.91;;;15.26;79.05
16410;BME280;8314;52.426;13.284;2022-07-18T04:43:55;101840.66;;;15.38;78.75
16410;BME280;8314;52.426;13.284;2022-07-18T04:46:22;101847.63;;;15.52;78.85
16410;BME280;8314;52.426;13.284;2022-07-18T04:48:50;101834.06;;;15.45;78.66
16410;BME280;8314;52.426;13.284;2022-07-18T04:51:18;101813.25;;;15.42;78.72
16410;BME280;8314;52.426;13.284;2022-07-18T04:53:46;101833.84;;;15.62;78.52
16410;BME280;8314;52.426;13.284;2022-07-18T04:56:14;101803.72;;;15.55;78.45
16410;BME280;8314;52.426;13.284;2022-07-18T04:58:44;101760.88;;;15.28;78.14
16410;BME280;8314;52.426;13.284;2022-07-18T05:01:11;101806.44;;;15.66;77.79
16410;BME280;8314;52.426;13.284;2022-07-18T05:03:39;101834.75;;;15.88;77.25
16410;BME280;8314;52.426;13.284;2022-07-18T05:06:07;101821.53;;;15.90;77.20
16410;BME280;8314;52.426;13.284;2022-07-18T05:08:35;101810.94;;;15.91;77.04
16410;BME280;8314;52.426;13.284;2022-07-18T05:11:03;101784.66;;;15.79;77.30
16410;BME280;8314;52.426;13.284;2022-07-18T05:13:30;101820.19;;;16.09;76.85
16410;BME280;8314;52.426;13.284;2022-07-18T05:15:59;101826.19;;;16.24;76.84
16410;BME280;8314;52.426;13.284;2022-07-18T05:18:27;101834.72;;;16.28;76.66
16410;BME280;8314;52.426;13.284;2022-07-18T05:20:54;101835.88;;;16.36;76.22
16410;BME280;8314;52.426;13.284;2022-07-18T05:23:22;101834.41;;;16.45;75.47
16410;BME280;8314;52.426;13.284;2022-07-18T05:25:50;101834.81;;;16.51;75.57
16410;BME280;8314;52.426;13.284;2022-07-18T05:28:19;101834.38;;;16.58;75.34
16410;BME280;8314;52.426;13.284;2022-07-18T05:30:47;101837.16;;;16.69;75.14
16410;BME280;8314;52.426;13.284;2022-07-18T05:33:16;101823.16;;;16.68;74.96
16410;BME280;8314;52.426;13.284;2022-07-18T05:35:44;101833.44;;;16.84;74.58
16410;BME280;8314;52.426;13.284;2022-07-18T05:38:11;101831.34;;;16.89;74.38
16410;BME280;8314;52.426;13.284;2022-07-18T05:40:39;101825.84;;;16.92;74.42
16410;BME280;8314;52.426;13.284;2022-07-18T05:43:06;101830.97;;;17.06;74.25
16410;BME280;8314;52.426;13.284;2022-07-18T05:45:34;101821.69;;;17.13;73.97
16410;BME280;8314;52.426;13.284;2022-07-18T05:48:02;101820.31;;;17.20;74.21
16410;BME280;8314;52.426;13.284;2022-07-18T05:50:33;101824.78;;;17.31;73.30
16410;BME280;8314;52.426;13.284;2022-07-18T05:53:01;101819.91;;;17.38;73.30
16410;BME280;8314;52.426;13.284;2022-07-18T05:55:28;101824.19;;;17.51;72.09
16410;BME280;8314;52.426;13.284;2022-07-18T05:57:56;101803.56;;;17.45;71.58
16410;BME280;8314;52.426;13.284;2022-07-18T06:00:25;101811.94;;;17.63;70.96
16410;BME280;8314;52.426;13.284;2022-07-18T06:02:53;101819.66;;;17.77;69.98
16410;BME280;8314;52.426;13.284;2022-07-18T06:05:22;101828.88;;;17.83;69.80
16410;BME280;8314;52.426;13.284;2022-07-18T06:07:53;101824.03;;;17.89;69.59
16410;BME280;8314;52.426;13.284;2022-07-18T06:10:22;101827.88;;;17.96;69.97
16410;BME280;8314;52.426;13.284;2022-07-18T06:12:50;101814.44;;;17.99;70.05
16410;BME280;8314;52.426;13.284;2022-07-18T06:15:18;101831.50;;;18.18;69.46
16410;BME280;8314;52.426;13.284;2022-07-18T06:17:46;101824.81;;;18.25;69.21
16410;BME280;8314;52.426;13.284;2022-07-18T06:20:14;101827.13;;;18.41;69.22
16410;BME280;8314;52.426;13.284;2022-07-18T06:22:41;101819.44;;;18.49;68.34
16410;BME280;8314;52.426;13.284;2022-07-18T06:25:11;101830.16;;;18.69;65.20
16410;BME280;8314;52.426;13.284;2022-07-18T06:27:39;101838.31;;;18.78;65.06
16410;BME280;8314;52.426;13.284;2022-07-18T06:30:07;101838.53;;;18.86;64.55
16410;BME280;8314;52.426;13.284;2022-07-18T06:32:36;101839.63;;;18.94;64.40
16410;BME280;8314;52.426;13.284;2022-07-18T06:35:05;101843.06;;;19.06;64.56
16410;BME280;8314;52.426;13.284;2022-07-18T06:37:33;101840.41;;;19.17;64.68
16410;BME280;8314;52.426;13.284;2022-07-18T06:40:00;101845.44;;;19.31;64.96
16410;BME280;8314;52.426;13.284;2022-07-18T06:42:32;101846.81;;;19.46;64.38
16410;BME280;8314;52.426;13.284;2022-07-18T06:45:01;101844.88;;;19.60;63.86
16410;BME280;8314;52.426;13.284;2022-07-18T06:47:36;101846.84;;;19.78;61.92
16410;BME280;8314;52.426;13.284;2022-07-18T06:50:05;101847.13;;;19.96;62.98
16410;BME280;8314;52.426;13.284;2022-07-18T06:52:32;101854.63;;;20.12;60.65
16410;BME280;8314;52.426;13.284;2022-07-18T06:55:00;101849.13;;;20.24;60.10
16410;BME280;8314;52.426;13.284;2022-07-18T06:57:28;101829.41;;;20.29;59.41
16410;BME280;8314;52.426;13.284;2022-07-18T06:59:59;101828.13;;;20.44;58.86
16410;BME280;8314;52.426;13.284;2022-07-18T07:02:27;101844.38;;;20.70;58.58
16410;BME280;8314;52.426;13.284;2022-07-18T07:04:54;101835.25;;;20.83;57.86
16410;BME280;8314;52.426;13.284;2022-07-18T07:07:22;101839.31;;;20.97;55.03
16410;BME280;8314;52.426;13.284;2022-07-18T07:09:52;101825.88;;;21.10;54.83
16410;BME280;8314;52.426;13.284;2022-07-18T07:12:20;101817.81;;;21.21;53.65
16410;BME280;8314;52.426;13.284;2022-07-18T07:14:47;101813.25;;;21.32;52.16
16410;BME280;8314;52.426;13.284;2022-07-18T07:17:16;101817.97;;;21.39;51.62
16410;BME280;8314;52.426;13.284;2022-07-18T07:19:45;101817.97;;;21.48;51.54
16410;BME280;8314;52.426;13.284;2022-07-18T07:22:12;101824.81;;;21.60;50.11
16410;BME280;8314;52.426;13.284;2022-07-18T07:24:40;101797.09;;;21.64;50.50
16410;BME280;8314;52.426;13.284;2022-07-18T07:27:07;101818.25;;;21.93;50.07
16410;BME280;8314;52.426;13.284;2022-07-18T07:29:35;101800.25;;;21.97;50.42
16410;BME280;8314;52.426;13.284;2022-07-18T07:32:02;101809.88;;;22.17;49.00
16410;BME280;8314;52.426;13.284;2022-07-18T07:34:33;101801.16;;;22.34;49.18
16410;BME280;8314;52.426;13.284;2022-07-18T07:37:02;101806.41;;;22.54;47.44
16410;BME280;8314;52.426;13.284;2022-07-18T07:39:29;101797.47;;;22.55;47.59
16410;BME280;8314;52.426;13.284;2022-07-18T07:41:57;101812.06;;;22.68;47.24
16410;BME280;8314;52.426;13.284;2022-07-18T07:44:30;101809.25;;;22.79;47.41
16410;BME280;8314;52.426;13.284;2022-07-18T07:46:57;101810.56;;;22.93;46.85
16410;BME280;8314;52.426;13.284;2022-07-18T07:49:25;101800.56;;;23.05;46.44
16410;BME280;8314;52.426;13.284;2022-07-18T07:51:54;101794.66;;;23.11;45.43
16410;BME280;8314;52.426;13.284;2022-07-18T07:54:22;101797.38;;;23.19;43.74
16410;BME280;8314;52.426;13.284;2022-07-18T07:56:49;101801.22;;;23.34;43.67
16410;BME280;8314;52.426;13.284;2022-07-18T07:59:17;101806.59;;;23.42;44.10
16410;BME280;8314;52.426;13.284;2022-07-18T08:01:44;101804.28;;;23.57;44.38
16410;BME280;8314;52.426;13.284;2022-07-18T08:04:12;101809.34;;;23.68;44.81
16410;BME280;8314;52.426;13.284;2022-07-18T08:06:40;101803.81;;;23.79;45.60
16410;BME280;8314;52.426;13.284;2022-07-18T08:09:08;101796.19;;;23.84;45.75
16410;BME280;8314;52.426;13.284;2022-07-18T08:11:36;101815.94;;;24.08;44.99
16410;BME280;8314;52.426;13.284;2022-07-18T08:14:04;101819.06;;;24.21;44.89
16410;BME280;8314;52.426;13.284;2022-07-18T08:16:32;101812.84;;;24.38;44.18
16410;BME280;8314;52.426;13.284;2022-07-18T08:19:00;101811.25;;;24.53;44.43
16410;BME280;8314;52.426;13.284;2022-07-18T08:21:28;101803.69;;;24.66;41.93
16410;BME280;8314;52.426;13.284;2022-07-18T08:23:56;101808.38;;;24.81;40.59
16410;BME280;8314;52.426;13.284;2022-07-18T08:26:32;101802.44;;;24.87;41.46
16410;BME280;8314;52.426;13.284;2022-07-18T08:29:00;101815.97;;;24.93;40.76
16410;BME280;8314;52.426;13.284;2022-07-18T08:31:28;101819.47;;;25.02;40.47
16410;BME280;8314;52.426;13.284;2022-07-18T08:33:57;101800.69;;;25.03;40.45
16410;BME280;8314;52.426;13.284;2022-07-18T08:36:25;101791.19;;;25.09;39.91
16410;BME280;8314;52.426;13.284;2022-07-18T08:38:52;101805.53;;;25.16;40.28
16410;BME280;8314;52.426;13.284;2022-07-18T08:41:22;101808.41;;;25.31;40.55
16410;BME280;8314;52.426;13.284;2022-07-18T08:43:51;101810.88;;;25.32;41.01
16410;BME280;8314;52.426;13.284;2022-07-18T08:46:20;101789.91;;;25.46;39.37
16410;BME280;8314;52.426;13.284;2022-07-18T08:48:48;101796.25;;;25.69;39.04
16410;BME280;8314;52.426;13.284;2022-07-18T08:51:18;101803.25;;;25.78;38.73
16410;BME280;8314;52.426;13.284;2022-07-18T08:53:46;101794.94;;;25.73;38.39
16410;BME280;8314;52.426;13.284;2022-07-18T08:56:14;101806.94;;;25.85;38.96
16410;BME280;8314;52.426;13.284;2022-07-18T08:58:42;101810.09;;;25.89;37.48
16410;BME280;8314;52.426;13.284;2022-07-18T09:01:13;101809.78;;;25.84;37.27
16410;BME280;8314;52.426;13.284;2022-07-18T09:03:40;101805.75;;;25.88;37.77
16410;BME280;8314;52.426;13.284;2022-07-18T09:06:10;101806.94;;;25.93;35.89
16410;BME280;8314;52.426;13.284;2022-07-18T09:08:38;101818.09;;;25.97;36.05
16410;BME280;8314;52.426;13.284;2022-07-18T09:11:10;101804.28;;;25.93;35.47
16410;BME280;8314;52.426;13.284;2022-07-18T09:13:57;101807.59;;;25.87;36.35
16410;BME280;8314;52.426;13.284;2022-07-18T09:16:26;101806.09;;;26.01;37.26
16410;BME280;8314;52.426;13.284;2022-07-18T09:18:54;101804.22;;;26.17;36.08
16410;BME280;8314;52.426;13.284;2022-07-18T09:21:45;101806.56;;;26.21;36.68
16410;BME280;8314;52.426;13.284;2022-07-18T09:24:18;101806.56;;;26.21;35.83
16410;BME280;8314;52.426;13.284;2022-07-18T09:26:46;101801.56;;;26.17;35.21
16410;BME280;8314;52.426;13.284;2022-07-18T09:32:27;101773.41;;;25.99;36.74
16410;BME280;8314;52.426;13.284;2022-07-18T09:34:54;101801.88;;;26.31;36.25
16410;BME280;8314;52.426;13.284;2022-07-18T09:37:29;101730.19;;;26.11;35.57
16410;BME280;8314;52.426;13.284;2022-07-18T09:40:53;101800.53;;;26.82;34.47
16410;BME280;8314;52.426;13.284;2022-07-18T09:43:05;101733.91;;;26.41;35.91
16410;BME280;8314;52.426;13.284;2022-07-18T09:45:49;101795.84;;;26.84;33.25
16410;BME280;8314;52.426;13.284;2022-07-18T09:55:45;101772.59;;;26.93;32.31
16410;BME280;8314;52.426;13.284;2022-07-18T09:58:57;101800.44;;;26.98;33.00
16410;BME280;8314;52.426;13.284;2022-07-18T10:01:25;101791.25;;;27.01;32.50
16410;BME280;8314;52.426;13.284;2022-07-18T10:04:00;101777.66;;;26.79;33.46
16410;BME280;8314;52.426;13.284;2022-07-18T10:07:16;101797.13;;;26.96;33.16
16410;BME280;8314;52.426;13.284;2022-07-18T10:10:07;101772.25;;;26.87;33.25
16410;BME280;8314;52.426;13.284;2022-07-18T10:12:35;101781.53;;;27.08;34.27
16410;BME280;8314;52.426;13.284;2022-07-18T10:15:49;101740.72;;;26.91;33.30
16410;BME280;8314;52.426;13.284;2022-07-18T10:19:15;101763.88;;;27.21;33.20
16410;BME280;8314;52.426;13.284;2022-07-18T10:22:46;101712.63;;;26.95;33.93
16410;BME280;8314;52.426;13.284;2022-07-18T10:26:35;101758.03;;;27.41;32.12
16410;BME280;8314;52.426;13.284;2022-07-18T10:30:37;101783.06;;;27.71;31.70
16410;BME280;8314;52.426;13.284;2022-07-18T10:34:08;101713.66;;;27.32;31.22
16410;BME280;8314;52.426;13.284;2022-07-18T10:46:17;101753.34;;;27.66;31.71
16410;BME280;8314;52.426;13.284;2022-07-18T10:53:36;101715.34;;;27.55;32.10
16410;BME280;8314;52.426;13.284;2022-07-18T11:00:02;101700.50;;;27.68;33.09
16410;BME280;8314;52.426;13.284;2022-07-18T11:02:38;101770.28;;;28.10;32.45
16410;BME280;8314;52.426;13.284;2022-07-18T11:05:31;101743.97;;;28.14;32.43
16410;BME280;8314;52.426;13.284;2022-07-18T11:08:18;101759.81;;;28.23;32.29
16410;BME280;8314;52.426;13.284;2022-07-18T11:11:04;101757.88;;;28.17;31.52
16410;BME280;8314;52.426;13.284;2022-07-18T11:13:33;101754.03;;;28.12;32.01
16410;BME280;8314;52.426;13.284;2022-07-18T11:16:04;101743.91;;;28.07;32.54
16410;BME280;8314;52.426;13.284;2022-07-18T11:21:59;101753.31;;;28.47;31.48
16410;BME280;8314;52.426;13.284;2022-07-18T11:24:32;101752.75;;;28.52;31.57
16410;BME280;8314;52.426;13.284;2022-07-18T11:31:57;101703.47;;;28.31;31.23
16410;BME280;8314;52.426;13.284;2022-07-18T11:41:05;101715.03;;;28.68;30.66
16410;BME280;8314;52.426;13.284;2022-07-18T11:43:36;101719.38;;;28.69;31.22
16410;BME280;8314;52.426;13.284;2022-07-18T11:46:05;101725.22;;;28.58;30.74
16410;BME280;8314;52.426;13.284;2022-07-18T11:48:42;101701.75;;;28.60;31.40
16410;BME280;8314;52.426;13.284;2022-07-18T11:51:10;101707.53;;;28.63;31.64
16410;BME280;8314;52.426;13.284;2022-07-18T11:53:42;101696.03;;;28.63;30.66
16410;BME280;8314;52.426;13.284;2022-07-18T11:56:12;101696.19;;;28.61;29.69
16410;BME280;8314;52.426;13.284;2022-07-18T11:58:41;101702.72;;;28.73;30.95
16410;BME280;8314;52.426;13.284;2022-07-18T12:01:09;101707.97;;;28.82;30.55
16410;BME280;8314;52.426;13.284;2022-07-18T12:03:39;101701.28;;;28.92;30.13
16410;BME280;8314;52.426;13.284;2022-07-18T12:06:12;101705.56;;;28.87;30.13
16410;BME280;8314;52.426;13.284;2022-07-18T12:08:41;101700.13;;;29.01;30.26
16410;BME280;8314;52.426;13.284;2022-07-18T12:11:13;101708.56;;;29.20;29.41
16410;BME280;8314;52.426;13.284;2022-07-18T12:13:52;101701.00;;;29.30;29.49
16410;BME280;8314;52.426;13.284;2022-07-18T12:16:30;101643.50;;;29.11;28.63
16410;BME280;8314;52.426;13.284;2022-07-18T12:18:59;101689.00;;;29.47;30.65
16410;BME280;8314;52.426;13.284;2022-07-18T12:21:42;101673.06;;;29.39;29.52
16410;BME280;8314;52.426;13.284;2022-07-18T12:24:23;101689.59;;;29.42;29.10
16410;BME280;8314;52.426;13.284;2022-07-18T12:27:13;101681.28;;;29.37;29.88
16410;BME280;8314;52.426;13.284;2022-07-18T12:30:00;101638.28;;;29.03;30.63
16410;BME280;8314;52.426;13.284;2022-07-18T12:32:30;101685.94;;;29.29;30.07
16410;BME280;8314;52.426;13.284;2022-07-18T12:35:05;101696.56;;;29.16;30.02
16410;BME280;8314;52.426;13.284;2022-07-18T12:37:33;101687.00;;;29.06;30.45
16410;BME280;8314;52.426;13.284;2022-07-18T12:40:03;101685.91;;;29.01;31.32
16410;BME280;8314;52.426;13.284;2022-07-18T12:43:01;101608.47;;;28.49;30.44
16410;BME280;8314;52.426;13.284;2022-07-18T12:45:30;101674.19;;;28.81;29.95
16410;BME280;8314;52.426;13.284;2022-07-18T12:47:57;101676.31;;;28.70;30.25
16410;BME280;8314;52.426;13.284;2022-07-18T12:50:25;101628.53;;;28.38;30.72
16410;BME280;8314;52.426;13.284;2022-07-18T12:52:52;101663.66;;;28.64;30.80
16410;BME280;8314;52.426;13.284;2022-07-18T12:55:20;101661.06;;;28.71;30.95
16410;BME280;8314;52.426;13.284;2022-07-18T12:57:58;101625.94;;;28.66;30.13
16410;BME280;8314;52.426;13.284;2022-07-18T13:00:27;101646.56;;;28.80;30.49
16410;BME280;8314;52.426;13.284;2022-07-18T13:02:56;101642.72;;;28.74;31.10
16410;BME280;8314;52.426;13.284;2022-07-18T13:16:49;101622.56;;;28.57;30.39
16410;BME280;8314;52.426;13.284;2022-07-18T13:19:23;101630.06;;;28.62;31.35
16410;BME280;8314;52.426;13.284;2022-07-18T13:21:50;101633.09;;;28.59;31.23
16410;BME280;8314;52.426;13.284;2022-07-18T13:24:18;101639.06;;;28.54;31.69
16410;BME280;8314;52.426;13.284;2022-07-18T13:27:01;101636.94;;;28.50;31.45
16410;BME280;8314;52.426;13.284;2022-07-18T13:29:29;101621.81;;;28.42;32.00
16410;BME280;8314;52.426;13.284;2022-07-18T13:31:57;101613.44;;;28.30;32.79
16410;BME280;8314;52.426;13.284;2022-07-18T13:34:25;101569.84;;;28.00;31.86
16410;BME280;8314;52.426;13.284;2022-07-18T13:36:53;101616.09;;;28.30;32.58
16410;BME280;8314;52.426;13.284;2022-07-18T13:39:22;101626.44;;;28.33;33.06
16410;BME280;8314;52.426;13.284;2022-07-18T13:41:50;101587.22;;;28.11;32.64
16410;BME280;8314;52.426;13.284;2022-07-18T13:44:18;101622.34;;;28.37;32.67
16410;BME280;8314;52.426;13.284;2022-07-18T13:46:45;101617.84;;;28.38;32.21
16410;BME280;8314;52.426;13.284;2022-07-18T13:49:14;101604.97;;;28.27;32.20
16410;BME280;8314;52.426;13.284;2022-07-18T13:51:43;101612.28;;;28.40;32.44
16410;BME280;8314;52.426;13.284;2022-07-18T13:54:10;101605.56;;;28.29;32.13
16410;BME280;8314;52.426;13.284;2022-07-18T13:56:38;101620.09;;;28.34;32.05
16410;BME280;8314;52.426;13.284;2022-07-18T13:59:06;101602.28;;;28.27;32.18
16410;BME280;8314;52.426;13.284;2022-07-18T14:01:34;101618.22;;;28.35;31.71
16410;BME280;8314;52.426;13.284;2022-07-18T14:04:03;101611.03;;;28.35;32.45
16410;BME280;8314;52.426;13.284;2022-07-18T14:06:32;101618.84;;;28.37;32.52
16410;BME280;8314;52.426;13.284;2022-07-18T14:09:02;101624.03;;;28.38;33.20
16410;BME280;8314;52.426;13.284;2022-07-18T14:11:30;101615.50;;;28.50;33.14